Portada
METAR-TAF:

METAR-TAF

Aeropuertos :

Aeropuerto de Wasilla

Wasilla, Alaska, Estados Unidos

latitud: 61-34-19N, longitud: 149-32-26W, altitud: 106 m

Observación

El informe se hizo hace 50 minutos, a las 22:56 UTC
Viento 5 kt con dirección variable
Temperatura 20°C
Humedad 21%
Presión 1013 hPa
Visibilidad: 16.1 km
Escasas nubes a una altura de 12000 ft

METAR: PAWS 222256Z AUTO VRB05KT 10SM FEW120 20/M03 A2991 RMK AO2 SLP131 T02001028

Hora: 15:46 (23:46 UTC)


TAF: falta

Observaciones y pronósticos meteorológicos de más de 4000 aeropuertos (mensajes METAR y TAF).

Los puntos amarillos y rojos representan las estaciones disponibles.

Ponga el ratón en el punto deseado para ver el nombre de la estación.

Haga clic para ver las observaciones y los pronósticos meteorológicos.

Para cambiar el mapa : haga clic en los botones verdes con una cruz de color negro para hacer un zoom, en el botón verde con un guión para alejar o en las flechas verdes para mapas adyacentes.


METAR-TAF: